createdAt,value
2023-04-16T00:00:53.808Z,14.77
2023-04-16T00:03:21.436Z,15.00
2023-04-16T00:05:49.097Z,15.33
2023-04-16T00:08:16.755Z,15.57
2023-04-16T00:10:44.253Z,16.70
2023-04-16T00:13:13.210Z,13.47
2023-04-16T00:15:40.726Z,14.47
2023-04-16T00:18:09.493Z,13.77
2023-04-16T00:20:37.082Z,14.90
2023-04-16T00:23:04.569Z,14.23
2023-04-16T00:25:32.041Z,14.53
2023-04-16T00:27:59.573Z,15.20
2023-04-16T00:30:27.074Z,13.93
2023-04-16T00:32:55.013Z,15.47
2023-04-16T00:35:23.861Z,14.80
2023-04-16T00:37:51.311Z,14.70
2023-04-16T00:40:18.941Z,15.00
2023-04-16T00:42:46.601Z,13.83
2023-04-16T00:45:14.159Z,14.20
2023-04-16T00:47:41.809Z,14.00
2023-04-16T00:50:10.006Z,14.73
2023-04-16T00:52:39.646Z,17.30
2023-04-16T00:55:08.488Z,16.40
2023-04-16T00:57:35.958Z,19.17
2023-04-16T01:00:03.980Z,16.57
2023-04-16T01:02:34.895Z,16.70
2023-04-16T01:05:03.318Z,15.10
2023-04-16T01:07:30.951Z,15.27
2023-04-16T01:10:00.300Z,14.53
2023-04-16T01:12:27.754Z,14.60
2023-04-16T01:14:55.505Z,14.63
2023-04-16T01:17:23.552Z,14.60
2023-04-16T01:19:51.014Z,15.33
2023-04-16T01:22:19.874Z,16.30
2023-04-16T01:24:47.373Z,16.57
2023-04-16T01:27:14.840Z,16.27
2023-04-16T01:29:42.361Z,15.40
2023-04-16T01:32:10.453Z,16.20
2023-04-16T01:34:41.409Z,15.70
2023-04-16T01:37:12.055Z,16.07
2023-04-16T01:39:40.879Z,14.87
2023-04-16T01:42:09.133Z,15.10
2023-04-16T01:44:37.212Z,16.50
2023-04-16T01:47:04.893Z,15.73
2023-04-16T01:49:33.738Z,14.00
2023-04-16T01:52:01.572Z,13.47
2023-04-16T01:54:29.024Z,15.33
2023-04-16T01:56:58.699Z,15.80
2023-04-16T01:59:26.171Z,15.17
2023-04-16T02:01:53.793Z,16.17
2023-04-16T02:04:21.451Z,13.57
2023-04-16T02:06:48.921Z,13.17
2023-04-16T02:09:16.542Z,15.87
2023-04-16T02:11:44.099Z,15.90
2023-04-16T02:14:12.966Z,17.60
2023-04-16T02:16:40.566Z,14.77
2023-04-16T02:19:23.014Z,13.00
2023-04-16T02:21:52.344Z,13.60
2023-04-16T02:24:20.157Z,14.90
2023-04-16T02:26:48.243Z,14.67
2023-04-16T02:29:20.369Z,14.10
2023-04-16T02:31:54.860Z,12.80
2023-04-16T02:34:22.948Z,14.10
2023-04-16T02:36:50.481Z,15.00
2023-04-16T02:39:19.569Z,13.17
2023-04-16T02:41:47.194Z,14.40
2023-04-16T02:44:14.802Z,15.73
2023-04-16T02:46:43.705Z,15.10
2023-04-16T02:49:11.496Z,13.23
2023-04-16T02:51:39.142Z,13.87
2023-04-16T02:54:06.579Z,14.40
2023-04-16T02:56:34.185Z,16.20
2023-04-16T02:59:01.729Z,13.53
2023-04-16T03:01:29.387Z,15.10
2023-04-16T03:03:58.381Z,12.37
2023-04-16T03:06:26.116Z,15.20
2023-04-16T03:08:53.694Z,13.23
2023-04-16T03:11:21.383Z,16.30
2023-04-16T03:13:48.919Z,14.70
2023-04-16T03:16:16.487Z,14.63
2023-04-16T03:18:44.620Z,14.60
2023-04-16T03:21:13.657Z,14.03
2023-04-16T03:23:41.191Z,13.20
2023-04-16T03:26:08.603Z,15.17
2023-04-16T03:28:36.368Z,13.80
2023-04-16T03:31:07.100Z,14.90
2023-04-16T03:33:36.703Z,14.80
2023-04-16T03:36:05.922Z,15.93
2023-04-16T03:38:34.762Z,14.70
2023-04-16T03:41:02.362Z,13.70
2023-04-16T03:43:33.109Z,13.70
2023-04-16T03:46:00.810Z,14.93
2023-04-16T03:48:28.336Z,14.33
2023-04-16T03:50:55.907Z,14.70
2023-04-16T03:53:23.484Z,15.27
2023-04-16T03:55:52.962Z,14.20
2023-04-16T03:58:21.827Z,14.10
2023-04-16T04:00:49.345Z,14.20
2023-04-16T04:03:18.776Z,16.03
2023-04-16T04:05:48.835Z,14.40
2023-04-16T04:08:21.899Z,13.07
2023-04-16T04:10:50.998Z,15.17
2023-04-16T04:13:22.362Z,13.07
2023-04-16T04:15:51.377Z,13.97
2023-04-16T04:18:19.140Z,14.03
2023-04-16T04:20:46.646Z,13.53
2023-04-16T04:23:16.789Z,13.87
2023-04-16T04:25:46.260Z,14.50
2023-04-16T04:28:14.462Z,14.27
2023-04-16T04:30:43.338Z,15.30
2023-04-16T04:33:11.366Z,13.67
2023-04-16T04:35:39.428Z,13.80
2023-04-16T04:38:07.069Z,13.83
2023-04-16T04:40:35.575Z,14.53
2023-04-16T04:43:04.382Z,15.07
2023-04-16T04:45:32.559Z,15.00
2023-04-16T04:48:01.707Z,13.90
2023-04-16T04:50:30.594Z,14.37
2023-04-16T04:52:58.698Z,13.53
2023-04-16T04:55:26.307Z,14.23
2023-04-16T04:57:53.835Z,14.23
2023-04-16T05:00:21.662Z,14.67
2023-04-16T05:02:55.117Z,13.67
2023-04-16T05:05:26.622Z,13.67
2023-04-16T05:07:54.171Z,15.00
2023-04-16T05:10:21.680Z,13.70
2023-04-16T05:12:49.296Z,13.70
2023-04-16T05:15:17.482Z,14.00
2023-04-16T05:17:45.048Z,14.33
2023-04-16T05:20:12.829Z,14.60
2023-04-16T05:22:41.615Z,13.87
2023-04-16T05:25:09.650Z,12.50
2023-04-16T05:27:38.327Z,14.03
2023-04-16T05:30:06.843Z,13.80
2023-04-16T05:32:34.348Z,12.93
2023-04-16T05:35:01.821Z,13.23
2023-04-16T05:37:29.384Z,11.93
2023-04-16T05:39:58.167Z,15.07
2023-04-16T05:42:25.870Z,12.53
2023-04-16T05:44:53.423Z,13.33
2023-04-16T05:47:22.748Z,13.60
2023-04-16T05:49:50.406Z,13.07
2023-04-16T05:52:17.860Z,13.23
2023-04-16T05:54:45.347Z,14.27
2023-04-16T05:57:14.319Z,13.87
2023-04-16T05:59:41.758Z,13.43
2023-04-16T06:02:09.453Z,14.10
2023-04-16T06:04:37.244Z,12.43
2023-04-16T06:07:04.683Z,11.20
2023-04-16T06:09:32.278Z,11.80
2023-04-16T06:12:01.025Z,11.10
2023-04-16T06:14:29.837Z,12.37
2023-04-16T06:17:00.506Z,11.90
2023-04-16T06:19:28.087Z,11.33
2023-04-16T06:21:55.753Z,14.13
2023-04-16T06:24:23.412Z,12.77
2023-04-16T06:26:50.918Z,12.43
2023-04-16T06:29:18.399Z,10.90
2023-04-16T06:31:47.331Z,11.40
2023-04-16T06:34:14.979Z,11.83
2023-04-16T06:36:42.617Z,11.73
2023-04-16T06:39:10.345Z,10.93
2023-04-16T06:41:37.963Z,11.67
2023-04-16T06:44:05.656Z,12.87
2023-04-16T06:46:33.171Z,11.40
2023-04-16T06:49:02.185Z,10.17
2023-04-16T06:51:30.012Z,10.30
2023-04-16T06:53:57.451Z,9.80
2023-04-16T06:56:24.993Z,11.07
2023-04-16T06:58:52.455Z,12.13
2023-04-16T07:01:20.052Z,12.10
2023-04-16T07:03:47.794Z,11.67
2023-04-16T07:06:16.852Z,9.60
2023-04-16T07:08:44.312Z,12.43
2023-04-16T07:11:11.897Z,12.37
2023-04-16T07:13:39.334Z,10.20
2023-04-16T07:16:07.210Z,10.90
2023-04-16T07:18:34.704Z,11.10
2023-04-16T07:21:02.222Z,12.90
2023-04-16T07:23:31.073Z,11.57
2023-04-16T07:25:58.515Z,10.53
2023-04-16T07:28:26.136Z,10.33
2023-04-16T07:30:53.631Z,12.10
2023-04-16T07:33:25.046Z,11.30
2023-04-16T07:35:52.542Z,10.63
2023-04-16T07:38:19.997Z,12.17
2023-04-16T07:40:48.944Z,11.10
2023-04-16T07:43:16.519Z,11.47
2023-04-16T07:45:44.123Z,11.30
2023-04-16T07:48:11.541Z,10.33
2023-04-16T07:50:39.134Z,10.70
2023-04-16T07:53:07.581Z,11.57
2023-04-16T07:55:35.048Z,11.60
2023-04-16T07:58:03.859Z,9.90
2023-04-16T08:00:31.478Z,11.13
2023-04-16T08:02:59.521Z,10.77
2023-04-16T08:05:27.356Z,11.10
2023-04-16T08:07:54.966Z,11.93
2023-04-16T08:10:22.713Z,11.23
2023-04-16T08:12:50.452Z,12.90
2023-04-16T08:15:19.570Z,9.87
2023-04-16T08:17:47.190Z,10.90
2023-04-16T08:20:17.602Z,11.90
2023-04-16T08:22:46.931Z,10.53
2023-04-16T08:25:15.111Z,10.93
2023-04-16T08:27:42.630Z,9.00
2023-04-16T08:30:10.323Z,11.87
2023-04-16T08:32:39.326Z,12.30
2023-04-16T08:35:07.430Z,10.47
2023-04-16T08:37:34.871Z,10.40
2023-04-16T08:40:02.332Z,9.63
2023-04-16T08:42:32.732Z,10.53
2023-04-16T08:45:07.709Z,10.30
2023-04-16T08:47:36.677Z,10.37
2023-04-16T08:50:06.870Z,10.67
2023-04-16T08:52:38.704Z,12.60
2023-04-16T08:55:13.160Z,11.07
2023-04-16T08:57:48.398Z,11.30
2023-04-16T09:00:17.715Z,12.40
2023-04-16T09:02:45.874Z,13.93
2023-04-16T09:05:18.108Z,12.77
2023-04-16T09:07:47.093Z,12.50
2023-04-16T09:10:16.300Z,12.57
2023-04-16T09:12:44.407Z,13.07
2023-04-16T09:15:14.161Z,13.20
2023-04-16T09:17:41.841Z,11.80
2023-04-16T09:20:10.987Z,13.00
2023-04-16T09:22:40.880Z,13.37
2023-04-16T09:25:12.337Z,14.57
2023-04-16T09:27:40.731Z,13.33
2023-04-16T09:30:22.717Z,12.67
2023-04-16T09:32:51.115Z,13.03
2023-04-16T09:35:20.316Z,14.97
2023-04-16T09:37:57.976Z,13.60
2023-04-16T09:40:26.950Z,12.83
2023-04-16T09:42:58.119Z,12.17
2023-04-16T09:45:26.165Z,13.20
2023-04-16T09:47:53.708Z,14.60
2023-04-16T09:50:21.594Z,14.50
2023-04-16T09:52:50.953Z,13.87
2023-04-16T09:55:27.958Z,15.27
2023-04-16T09:58:00.179Z,15.70
2023-04-16T10:00:29.597Z,16.67
2023-04-16T10:03:05.652Z,18.27
2023-04-16T10:05:33.331Z,14.20
2023-04-16T10:08:01.531Z,13.50
2023-04-16T10:10:31.276Z,14.00
2023-04-16T10:12:59.047Z,13.53
2023-04-16T10:15:26.736Z,15.80
2023-04-16T10:17:55.181Z,14.50
2023-04-16T10:20:24.853Z,15.03
2023-04-16T10:22:53.834Z,15.10
2023-04-16T10:25:21.734Z,14.97
2023-04-16T10:27:51.468Z,15.77
2023-04-16T10:30:20.227Z,16.63
2023-04-16T10:32:48.357Z,15.70
2023-04-16T10:35:17.253Z,15.30
2023-04-16T10:37:45.227Z,14.53
2023-04-16T10:40:23.765Z,14.77
2023-04-16T10:42:56.856Z,15.00
2023-04-16T10:45:38.318Z,14.17
2023-04-16T10:48:08.492Z,14.23
2023-04-16T10:50:36.850Z,14.40
2023-04-16T10:53:21.364Z,15.13
2023-04-16T10:55:59.442Z,15.40
2023-04-16T10:58:32.225Z,15.53
2023-04-16T11:01:00.876Z,15.53
2023-04-16T11:03:32.432Z,16.50
2023-04-16T11:06:14.404Z,15.10
2023-04-16T11:08:54.038Z,13.50
2023-04-16T11:11:23.218Z,14.50
2023-04-16T11:13:56.603Z,13.63
2023-04-16T11:16:25.945Z,15.17
2023-04-16T11:18:55.070Z,16.30
2023-04-16T11:21:25.130Z,15.10
2023-04-16T11:23:54.236Z,16.20
2023-04-16T11:26:26.019Z,15.37
2023-04-16T11:28:56.381Z,14.43
2023-04-16T11:31:24.245Z,14.57
2023-04-16T11:33:51.837Z,14.97
2023-04-16T11:36:19.539Z,14.77
2023-04-16T11:38:48.051Z,14.30
2023-04-16T11:41:21.825Z,17.37
2023-04-16T11:43:49.592Z,14.93
2023-04-16T11:46:27.423Z,16.60
2023-04-16T11:48:56.652Z,16.07
2023-04-16T11:51:24.264Z,15.67
2023-04-16T11:53:53.399Z,18.03
2023-04-16T11:56:28.449Z,14.83
2023-04-16T11:59:10.308Z,17.70
2023-04-16T12:01:45.394Z,16.30
2023-04-16T12:04:15.814Z,14.20
2023-04-16T12:07:08.050Z,15.90
2023-04-16T12:09:39.364Z,16.30
2023-04-16T12:12:25.860Z,16.43
2023-04-16T12:14:54.367Z,15.60
2023-04-16T12:17:24.006Z,16.73
2023-04-16T12:19:52.564Z,14.77
2023-04-16T12:22:31.249Z,15.40
2023-04-16T12:25:03.849Z,16.67
2023-04-16T12:27:46.732Z,16.70
2023-04-16T12:30:15.995Z,15.60
2023-04-16T12:32:46.048Z,15.20
2023-04-16T12:35:14.357Z,15.20
2023-04-16T12:37:41.846Z,16.90
2023-04-16T12:40:10.233Z,15.10
2023-04-16T12:42:37.774Z,16.23
2023-04-16T12:45:08.120Z,14.70
2023-04-16T12:47:35.752Z,16.13
2023-04-16T12:50:04.830Z,16.83
2023-04-16T12:52:32.445Z,16.00
2023-04-16T12:54:59.988Z,15.80
2023-04-16T12:57:28.699Z,13.73
2023-04-16T12:59:57.146Z,16.57
2023-04-16T13:02:25.199Z,14.60
2023-04-16T13:04:53.862Z,17.30
2023-04-16T13:07:24.066Z,13.63
2023-04-16T13:09:51.776Z,13.33
2023-04-16T13:12:19.783Z,12.80
2023-04-16T13:14:47.297Z,12.07
2023-04-16T13:17:15.065Z,11.30
2023-04-16T13:19:45.483Z,10.53
2023-04-16T13:22:13.221Z,12.77
2023-04-16T13:24:42.574Z,10.80
2023-04-16T13:27:11.303Z,10.87
2023-04-16T13:29:38.767Z,12.03
2023-04-16T13:32:07.039Z,11.17
2023-04-16T13:34:34.578Z,11.20
2023-04-16T13:37:02.076Z,10.37
2023-04-16T13:39:29.553Z,11.30
2023-04-16T13:41:58.445Z,10.70
2023-04-16T13:44:26.078Z,10.13
2023-04-16T13:46:54.438Z,10.40
2023-04-16T13:49:22.781Z,12.33
2023-04-16T13:51:50.574Z,8.60
2023-04-16T13:54:18.254Z,9.27
2023-04-16T13:56:45.830Z,8.33
2023-04-16T13:59:15.622Z,9.10
2023-04-16T14:01:43.227Z,10.10
2023-04-16T14:04:12.889Z,8.53
2023-04-16T14:06:40.485Z,8.70
2023-04-16T14:09:09.519Z,9.80
2023-04-16T14:11:37.453Z,9.17
2023-04-16T14:14:05.079Z,10.17
2023-04-16T14:16:34.665Z,9.27
2023-04-16T14:19:02.285Z,8.40
2023-04-16T14:21:29.771Z,9.50
2023-04-16T14:23:57.321Z,9.53
2023-04-16T14:26:24.873Z,10.00
2023-04-16T14:28:52.600Z,11.60
2023-04-16T14:31:20.570Z,10.80
2023-04-16T14:33:49.444Z,10.77
2023-04-16T14:36:17.039Z,11.03
2023-04-16T14:38:44.550Z,9.70
2023-04-16T14:41:12.449Z,10.27
2023-04-16T14:43:41.199Z,9.47
2023-04-16T14:46:08.985Z,9.70
2023-04-16T14:48:36.805Z,8.40
2023-04-16T14:51:07.230Z,10.00
2023-04-16T14:53:36.469Z,9.73
2023-04-16T14:56:04.086Z,9.40
2023-04-16T14:58:31.683Z,10.27
2023-04-16T15:00:59.503Z,9.40
2023-04-16T15:03:27.431Z,9.77
2023-04-16T15:05:56.008Z,8.70
2023-04-16T15:08:27.689Z,9.30
2023-04-16T15:10:55.259Z,8.37
2023-04-16T15:13:22.810Z,8.23
2023-04-16T15:15:50.434Z,8.70
2023-04-16T15:18:17.970Z,8.80
2023-04-16T15:20:45.938Z,7.70
2023-04-16T15:23:13.426Z,8.53
2023-04-16T15:25:42.262Z,7.53
2023-04-16T15:28:09.689Z,5.83
2023-04-16T15:30:38.641Z,5.97
2023-04-16T15:33:06.175Z,5.23
2023-04-16T15:35:33.908Z,4.57
2023-04-16T15:38:01.371Z,3.90
2023-04-16T15:40:28.816Z,4.47
2023-04-16T15:42:57.847Z,4.17
2023-04-16T15:45:25.370Z,4.40
2023-04-16T15:47:52.906Z,4.40
2023-04-16T15:50:20.794Z,4.23
2023-04-16T15:52:49.150Z,4.00
2023-04-16T15:55:18.055Z,4.20
2023-04-16T15:57:45.588Z,5.30
2023-04-16T16:00:17.104Z,4.60
2023-04-16T16:02:46.219Z,4.50
2023-04-16T16:05:16.940Z,5.00
2023-04-16T16:07:44.803Z,4.70
2023-04-16T16:10:12.998Z,4.40
2023-04-16T16:12:40.951Z,4.77
2023-04-16T16:15:10.838Z,5.80
2023-04-16T16:17:40.532Z,5.60
2023-04-16T16:20:10.317Z,5.37
2023-04-16T16:22:39.092Z,5.23
2023-04-16T16:25:08.005Z,4.97
2023-04-16T16:27:36.084Z,6.27
2023-04-16T16:30:06.474Z,5.33
2023-04-16T16:32:34.055Z,5.10
2023-04-16T16:35:04.177Z,5.33
2023-04-16T16:37:31.861Z,5.70
2023-04-16T16:39:59.599Z,6.00
2023-04-16T16:42:27.208Z,5.40
2023-04-16T16:44:57.191Z,5.77
2023-04-16T16:47:25.426Z,4.40
2023-04-16T16:49:54.575Z,4.53
2023-04-16T16:52:24.995Z,4.50
2023-04-16T16:54:53.791Z,7.30
2023-04-16T16:57:21.652Z,4.20
2023-04-16T16:59:50.400Z,4.80
2023-04-16T17:02:18.277Z,5.30
2023-04-16T17:04:45.827Z,5.83
2023-04-16T17:07:13.355Z,5.83
2023-04-16T17:09:42.152Z,6.00
2023-04-16T17:12:09.718Z,7.20
2023-04-16T17:14:37.336Z,11.23
2023-04-16T17:17:05.036Z,8.27
2023-04-16T17:19:32.731Z,6.70
2023-04-16T17:22:00.215Z,9.27
2023-04-16T17:24:27.699Z,7.60
2023-04-16T17:26:56.897Z,9.37
2023-04-16T17:29:26.102Z,7.37
2023-04-16T17:31:54.407Z,17.00
2023-04-16T17:34:22.330Z,6.47
2023-04-16T17:36:50.463Z,6.10
2023-04-16T17:39:18.104Z,6.50
2023-04-16T17:41:46.055Z,6.87
2023-04-16T17:44:14.961Z,6.10
2023-04-16T17:46:42.479Z,7.50
2023-04-16T17:49:10.030Z,7.80
2023-04-16T17:51:37.507Z,7.37
2023-04-16T17:54:05.280Z,5.83
2023-04-16T17:56:32.918Z,7.10
2023-04-16T17:59:00.730Z,7.77
2023-04-16T18:01:29.790Z,8.10
2023-04-16T18:03:57.402Z,8.10
2023-04-16T18:06:24.927Z,7.87
2023-04-16T18:08:53.397Z,6.73
2023-04-16T18:11:21.075Z,6.40
2023-04-16T18:13:48.561Z,7.53
2023-04-16T18:16:16.501Z,6.80
2023-04-16T18:18:46.148Z,6.00
2023-04-16T18:21:13.664Z,6.53
2023-04-16T18:23:41.207Z,6.57
2023-04-16T18:26:09.481Z,6.90
2023-04-16T18:28:38.676Z,6.80
2023-04-16T18:31:07.656Z,7.73
2023-04-16T18:33:54.099Z,6.73
2023-04-16T18:36:24.123Z,7.53
2023-04-16T18:39:01.025Z,12.40
2023-04-16T18:41:29.752Z,11.37
2023-04-16T18:43:57.463Z,7.90
2023-04-16T18:46:25.288Z,8.13
2023-04-16T18:48:56.050Z,6.77
2023-04-16T18:51:24.864Z,7.23
2023-04-16T18:53:52.354Z,7.63
2023-04-16T18:56:19.889Z,9.27
2023-04-16T18:58:47.755Z,6.67
2023-04-16T19:01:16.291Z,7.83
2023-04-16T19:03:43.786Z,8.90
2023-04-16T19:06:11.276Z,6.93
2023-04-16T19:08:40.220Z,6.63
2023-04-16T19:11:07.752Z,7.77
2023-04-16T19:13:35.288Z,10.63
2023-04-16T19:16:04.900Z,7.77
2023-04-16T19:18:32.622Z,13.77
2023-04-16T19:21:00.671Z,6.80
2023-04-16T19:23:28.699Z,7.10
2023-04-16T19:25:57.730Z,8.13
2023-04-16T19:28:25.740Z,6.83
2023-04-16T19:30:53.851Z,18.13
2023-04-16T19:33:21.449Z,6.93
2023-04-16T19:35:48.955Z,7.73
2023-04-16T19:38:16.600Z,11.90
2023-04-16T19:40:45.786Z,8.83
2023-04-16T19:43:14.985Z,9.60
2023-04-16T19:45:46.016Z,7.67
2023-04-16T19:48:13.710Z,7.43
2023-04-16T19:50:41.328Z,6.93
2023-04-16T19:53:13.087Z,6.70
2023-04-16T19:55:40.811Z,8.03
2023-04-16T19:58:08.764Z,10.67
2023-04-16T20:00:40.667Z,7.60
2023-04-16T20:03:08.451Z,9.67
2023-04-16T20:05:36.417Z,9.40
2023-04-16T20:08:04.013Z,7.73
2023-04-16T20:10:31.928Z,8.70
2023-04-16T20:12:59.553Z,9.50
2023-04-16T20:15:27.132Z,10.40
2023-04-16T20:17:56.422Z,10.00
2023-04-16T20:20:23.983Z,9.07
2023-04-16T20:22:51.529Z,14.07
2023-04-16T20:25:19.817Z,11.30
2023-04-16T20:27:47.428Z,7.47
2023-04-16T20:30:15.762Z,12.60
2023-04-16T20:32:43.280Z,10.87
2023-04-16T20:35:12.701Z,9.10
2023-04-16T20:37:43.563Z,8.83
2023-04-16T20:40:13.748Z,7.93
2023-04-16T20:42:46.086Z,8.10
2023-04-16T20:45:14.308Z,8.77
2023-04-16T20:47:43.363Z,8.30
2023-04-16T20:50:13.417Z,8.73
2023-04-16T20:52:42.188Z,8.23
2023-04-16T20:55:10.228Z,7.63
2023-04-16T20:57:37.751Z,9.90
2023-04-16T21:00:09.351Z,9.10
2023-04-16T21:02:37.023Z,8.20
2023-04-16T21:05:06.192Z,7.00
2023-04-16T21:07:34.960Z,8.23
2023-04-16T21:10:02.780Z,8.60
2023-04-16T21:12:30.423Z,8.13
2023-04-16T21:14:57.954Z,9.50
2023-04-16T21:17:27.903Z,8.13
2023-04-16T21:19:55.762Z,8.63
2023-04-16T21:22:23.613Z,9.00
2023-04-16T21:24:52.473Z,8.70
2023-04-16T21:27:20.060Z,7.83
2023-04-16T21:29:47.728Z,7.73
2023-04-16T21:32:15.168Z,8.00
2023-04-16T21:34:42.587Z,8.10
2023-04-16T21:37:10.427Z,8.73
2023-04-16T21:39:37.950Z,10.00
2023-04-16T21:42:07.147Z,8.40
2023-04-16T21:44:34.636Z,8.27
2023-04-16T21:47:02.187Z,8.43
2023-04-16T21:49:29.679Z,8.43
2023-04-16T21:51:59.102Z,8.67
2023-04-16T21:54:26.609Z,8.07
2023-04-16T21:56:54.072Z,7.87
2023-04-16T21:59:23.255Z,8.10
2023-04-16T22:01:50.970Z,7.10
2023-04-16T22:04:18.613Z,9.60
2023-04-16T22:06:46.736Z,7.70
2023-04-16T22:09:15.368Z,8.50
2023-04-16T22:11:42.922Z,9.40
2023-04-16T22:14:10.497Z,8.60
2023-04-16T22:16:39.981Z,8.30
2023-04-16T22:19:07.901Z,8.90
2023-04-16T22:21:35.439Z,10.10
2023-04-16T22:24:03.582Z,8.27
2023-04-16T22:26:31.112Z,8.57
2023-04-16T22:28:59.056Z,9.00
2023-04-16T22:31:26.576Z,8.07
2023-04-16T22:33:55.409Z,9.40
2023-04-16T22:36:22.937Z,9.03
2023-04-16T22:38:50.372Z,9.67
2023-04-16T22:41:18.046Z,7.67
2023-04-16T22:43:45.631Z,8.90
2023-04-16T22:46:13.129Z,9.43
2023-04-16T22:48:40.634Z,9.50
2023-04-16T22:51:09.829Z,9.20
2023-04-16T22:53:38.230Z,10.00
2023-04-16T22:56:06.364Z,9.20
2023-04-16T22:58:33.806Z,8.60
2023-04-16T23:01:01.636Z,8.57
2023-04-16T23:03:29.352Z,9.67
2023-04-16T23:05:56.918Z,9.07
2023-04-16T23:08:25.866Z,8.77
2023-04-16T23:10:53.336Z,9.37
2023-04-16T23:13:20.898Z,8.50
2023-04-16T23:15:48.401Z,8.57
2023-04-16T23:18:16.120Z,10.27
2023-04-16T23:20:43.583Z,9.53
2023-04-16T23:23:11.038Z,9.27
2023-04-16T23:25:41.955Z,10.50
2023-04-16T23:28:09.550Z,9.07
2023-04-16T23:30:37.322Z,9.30
2023-04-16T23:33:05.032Z,9.37
2023-04-16T23:35:35.998Z,8.27
2023-04-16T23:38:03.576Z,10.00
2023-04-16T23:40:31.261Z,8.73
2023-04-16T23:43:00.154Z,10.20
2023-04-16T23:45:27.680Z,9.70
2023-04-16T23:47:55.193Z,8.93
2023-04-16T23:50:22.718Z,9.90
2023-04-16T23:52:50.187Z,9.43
2023-04-16T23:55:17.717Z,8.57
2023-04-16T23:57:45.478Z,9.90
